createdAt,value
2018-07-27T00:02:04.744Z,26.60
2018-07-27T00:05:10.039Z,26.70
2018-07-27T00:08:13.173Z,26.60
2018-07-27T00:11:16.409Z,26.60
2018-07-27T00:14:19.829Z,26.50
2018-07-27T00:17:22.985Z,26.50
2018-07-27T00:20:26.106Z,26.50
2018-07-27T00:23:29.325Z,26.40
2018-07-27T00:26:32.424Z,26.30
2018-07-27T00:29:35.571Z,26.30
2018-07-27T00:32:38.729Z,26.60
2018-07-27T00:35:41.874Z,26.40
2018-07-27T00:38:44.995Z,26.10
2018-07-27T00:41:48.230Z,26.30
2018-07-27T00:44:51.381Z,26.50
2018-07-27T00:47:54.541Z,26.30
2018-07-27T00:50:57.674Z,26.30
2018-07-27T00:54:00.729Z,26.30
2018-07-27T00:57:03.886Z,26.30
2018-07-27T01:00:07.151Z,26.20
2018-07-27T01:03:10.257Z,26.20
2018-07-27T01:06:13.485Z,26.10
2018-07-27T01:09:16.585Z,26.00
2018-07-27T01:12:19.776Z,25.90
2018-07-27T01:15:22.980Z,25.90
2018-07-27T01:18:26.051Z,25.80
2018-07-27T01:21:29.117Z,25.80
2018-07-27T01:24:32.228Z,25.70
2018-07-27T01:27:35.409Z,25.90
2018-07-27T01:30:38.531Z,26.10
2018-07-27T01:33:41.643Z,26.00
2018-07-27T01:36:44.831Z,25.90
2018-07-27T01:39:47.912Z,25.90
2018-07-27T01:42:50.977Z,25.50
2018-07-27T01:45:54.114Z,25.60
2018-07-27T01:48:57.108Z,25.70
2018-07-27T01:52:00.153Z,25.60
2018-07-27T01:55:03.261Z,25.80
2018-07-27T01:58:06.353Z,25.60
2018-07-27T02:01:09.457Z,25.50
2018-07-27T02:04:12.533Z,25.30
2018-07-27T02:07:15.605Z,25.40
2018-07-27T02:10:18.694Z,25.70
2018-07-27T02:13:21.879Z,25.80
2018-07-27T02:16:24.958Z,25.80
2018-07-27T02:19:29.025Z,25.80
2018-07-27T02:22:32.752Z,25.70
2018-07-27T02:25:37.252Z,25.80
2018-07-27T02:28:40.396Z,25.60
2018-07-27T02:31:44.980Z,25.50
2018-07-27T02:34:48.116Z,25.30
2018-07-27T02:37:54.456Z,25.20
2018-07-27T02:40:58.665Z,25.50
2018-07-27T02:44:01.778Z,25.40
2018-07-27T02:47:05.385Z,25.40
2018-07-27T02:50:08.724Z,25.40
2018-07-27T02:53:11.843Z,25.20
2018-07-27T02:56:14.909Z,25.30
2018-07-27T02:59:18.141Z,25.20
2018-07-27T03:02:21.339Z,25.00
2018-07-27T03:05:24.455Z,25.00
2018-07-27T03:08:27.720Z,25.00
2018-07-27T03:11:30.949Z,24.90
2018-07-27T03:14:34.073Z,24.90
2018-07-27T03:17:37.362Z,25.00
2018-07-27T03:20:40.473Z,24.80
2018-07-27T03:23:43.574Z,24.90
2018-07-27T03:26:47.017Z,25.00
2018-07-27T03:29:50.249Z,24.90
2018-07-27T03:32:53.465Z,24.90
2018-07-27T03:35:56.719Z,25.00
2018-07-27T03:39:02.281Z,25.20
2018-07-27T03:42:06.023Z,25.00
2018-07-27T03:45:09.277Z,24.60
2018-07-27T03:48:12.365Z,24.60
2018-07-27T03:51:16.285Z,24.70
2018-07-27T03:54:19.407Z,24.70
2018-07-27T03:57:22.476Z,24.80
2018-07-27T04:00:25.919Z,24.40
2018-07-27T04:03:28.954Z,24.30
2018-07-27T04:06:32.361Z,24.40
2018-07-27T04:09:35.536Z,24.50
2018-07-27T04:12:38.669Z,24.60
2018-07-27T04:15:41.826Z,24.30
2018-07-27T04:18:46.312Z,24.50
2018-07-27T04:24:52.957Z,24.50
2018-07-27T04:27:56.325Z,24.40
2018-07-27T04:30:59.368Z,24.50
2018-07-27T04:34:02.665Z,24.50
2018-07-27T04:37:05.761Z,24.40
2018-07-27T04:40:08.926Z,24.40
2018-07-27T04:43:12.093Z,24.60
2018-07-27T04:46:15.192Z,24.40
2018-07-27T04:49:18.351Z,24.30
2018-07-27T04:52:21.410Z,24.40
2018-07-27T04:55:24.512Z,24.30
2018-07-27T04:58:28.506Z,24.40
2018-07-27T05:01:31.680Z,24.50
2018-07-27T05:04:34.994Z,24.70
2018-07-27T05:07:38.057Z,24.50
2018-07-27T05:10:47.628Z,24.50
2018-07-27T05:13:50.810Z,24.70
2018-07-27T05:16:53.832Z,24.40
2018-07-27T05:19:56.916Z,24.60
2018-07-27T05:23:00.061Z,24.50
2018-07-27T05:26:03.365Z,24.50
2018-07-27T05:29:08.901Z,24.40
2018-07-27T05:32:12.034Z,24.60
2018-07-27T05:35:15.242Z,24.60
2018-07-27T05:38:18.340Z,24.70
2018-07-27T05:41:21.629Z,24.70
2018-07-27T05:44:25.085Z,24.70
2018-07-27T05:47:28.148Z,24.70
2018-07-27T05:50:38.049Z,24.70
2018-07-27T05:53:41.181Z,24.70
2018-07-27T05:56:44.389Z,24.70
2018-07-27T05:59:47.535Z,25.00
2018-07-27T06:02:50.812Z,24.70
2018-07-27T06:05:53.894Z,24.80
2018-07-27T06:08:57.658Z,24.90
2018-07-27T06:12:03.021Z,24.80
2018-07-27T06:18:10.533Z,24.80
2018-07-27T06:21:13.773Z,24.80
2018-07-27T06:24:16.857Z,24.90
2018-07-27T06:30:23.357Z,24.90
2018-07-27T06:33:26.618Z,25.20
2018-07-27T06:36:29.745Z,25.00
2018-07-27T06:39:32.813Z,25.00
2018-07-27T06:42:35.823Z,25.00
2018-07-27T06:45:39.045Z,25.10
2018-07-27T06:48:42.144Z,25.10
2018-07-27T06:51:45.109Z,25.10
2018-07-27T06:54:48.088Z,25.20
2018-07-27T06:57:51.438Z,25.20
2018-07-27T07:00:54.429Z,25.30
2018-07-27T07:03:57.482Z,25.30
2018-07-27T07:07:01.243Z,25.40
2018-07-27T07:10:04.636Z,25.50
2018-07-27T07:13:07.756Z,25.60
2018-07-27T07:16:10.968Z,25.60
2018-07-27T07:19:14.144Z,25.80
2018-07-27T07:22:17.115Z,25.90
2018-07-27T07:25:20.360Z,26.00
2018-07-27T07:28:23.213Z,26.10
2018-07-27T07:31:26.279Z,26.20
2018-07-27T07:34:29.247Z,26.40
2018-07-27T07:37:32.366Z,26.60
2018-07-27T07:40:35.468Z,26.70
2018-07-27T07:43:38.848Z,26.90
2018-07-27T07:46:41.929Z,27.00
2018-07-27T07:49:44.957Z,27.30
2018-07-27T07:52:47.937Z,27.20
2018-07-27T07:55:50.894Z,27.30
2018-07-27T07:58:53.844Z,27.40
2018-07-27T08:01:56.822Z,27.50
2018-07-27T08:04:59.917Z,27.60
2018-07-27T08:08:03.221Z,27.70
2018-07-27T08:11:06.496Z,27.80
2018-07-27T08:14:09.593Z,27.70
2018-07-27T08:17:12.764Z,27.90
2018-07-27T08:20:16.027Z,27.90
2018-07-27T08:23:19.348Z,27.90
2018-07-27T08:26:56.034Z,28.10
2018-07-27T08:29:59.285Z,28.20
2018-07-27T08:33:02.430Z,28.30
2018-07-27T08:36:05.818Z,28.40
2018-07-27T08:39:12.976Z,28.50
2018-07-27T08:42:16.178Z,28.50
2018-07-27T08:45:19.355Z,28.60
2018-07-27T08:48:22.485Z,28.70
2018-07-27T08:51:25.741Z,28.80
2018-07-27T08:54:29.125Z,28.80
2018-07-27T08:57:32.276Z,28.80
2018-07-27T09:00:51.509Z,28.90
2018-07-27T09:03:54.727Z,29.00
2018-07-27T09:06:57.775Z,29.00
2018-07-27T09:10:00.909Z,29.10
2018-07-27T09:13:04.164Z,29.20
2018-07-27T09:16:07.389Z,29.20
2018-07-27T09:19:10.537Z,29.30
2018-07-27T09:22:13.684Z,29.40
2018-07-27T09:25:17.141Z,29.50
2018-07-27T09:28:20.021Z,29.50
2018-07-27T09:31:23.015Z,29.70
2018-07-27T09:34:26.177Z,29.70
2018-07-27T09:37:29.144Z,29.70
2018-07-27T09:40:32.504Z,29.80
2018-07-27T09:46:38.878Z,29.90
2018-07-27T09:49:41.973Z,30.20
2018-07-27T09:52:45.038Z,30.10
2018-07-27T09:58:51.116Z,30.30
2018-07-27T10:01:54.257Z,30.20
2018-07-27T10:04:57.268Z,30.30
2018-07-27T10:08:00.468Z,30.40
2018-07-27T10:11:03.561Z,30.40
2018-07-27T10:14:06.665Z,30.50
2018-07-27T10:17:09.761Z,30.70
2018-07-27T10:20:12.813Z,30.70
2018-07-27T10:23:15.892Z,30.80
2018-07-27T10:26:19.025Z,30.50
2018-07-27T10:29:22.097Z,30.80
2018-07-27T10:32:25.370Z,30.90
2018-07-27T10:35:28.496Z,30.90
2018-07-27T10:38:31.616Z,31.10
2018-07-27T10:41:34.759Z,31.10
2018-07-27T10:44:37.853Z,31.20
2018-07-27T10:47:40.969Z,31.00
2018-07-27T10:50:44.078Z,31.30
2018-07-27T10:53:48.241Z,31.40
2018-07-27T10:56:51.453Z,31.40
2018-07-27T10:59:54.595Z,31.60
2018-07-27T11:02:57.798Z,31.50
2018-07-27T11:06:01.029Z,31.60
2018-07-27T11:09:06.769Z,31.70
2018-07-27T11:12:10.042Z,31.70
2018-07-27T11:15:13.160Z,31.80
2018-07-27T11:18:16.293Z,32.00
2018-07-27T11:21:19.519Z,31.80
2018-07-27T11:24:22.626Z,31.60
2018-07-27T11:27:25.793Z,31.90
2018-07-27T11:30:28.910Z,32.00
2018-07-27T11:33:32.312Z,32.20
2018-07-27T11:36:35.497Z,32.20
2018-07-27T11:39:38.654Z,32.30
2018-07-27T11:42:41.886Z,32.10
2018-07-27T11:45:45.058Z,32.20
2018-07-27T11:48:50.493Z,32.10
2018-07-27T11:51:53.652Z,32.30
2018-07-27T11:54:56.702Z,32.50
2018-07-27T11:57:59.791Z,32.60
2018-07-27T12:01:02.986Z,32.60
2018-07-27T12:04:06.198Z,32.50
2018-07-27T12:07:09.400Z,32.50
2018-07-27T12:10:12.480Z,32.50
2018-07-27T12:13:15.811Z,32.50
2018-07-27T12:16:18.927Z,32.60
2018-07-27T12:19:22.071Z,32.70
2018-07-27T12:22:25.188Z,32.70
2018-07-27T12:25:28.292Z,32.70
2018-07-27T12:28:31.397Z,32.80
2018-07-27T12:31:35.063Z,32.90
2018-07-27T12:34:39.079Z,33.00
2018-07-27T12:37:42.545Z,32.90
2018-07-27T12:40:46.034Z,33.10
2018-07-27T12:43:49.646Z,33.10
2018-07-27T12:46:53.155Z,33.10
2018-07-27T12:49:56.305Z,32.90
2018-07-27T12:52:59.441Z,33.10
2018-07-27T12:56:02.635Z,33.10
2018-07-27T12:59:05.854Z,33.20
2018-07-27T13:02:09.101Z,33.20
2018-07-27T13:05:12.262Z,33.00
2018-07-27T13:08:15.319Z,33.30
2018-07-27T13:11:18.410Z,33.30
2018-07-27T13:14:21.497Z,33.40
2018-07-27T13:17:24.586Z,33.30
2018-07-27T13:20:48.106Z,33.60
2018-07-27T13:23:59.445Z,33.60
2018-07-27T13:27:02.583Z,33.60
2018-07-27T13:30:06.186Z,33.50
2018-07-27T13:33:09.300Z,33.50
2018-07-27T13:36:12.368Z,33.60
2018-07-27T13:42:21.019Z,33.60
2018-07-27T13:45:24.180Z,33.70
2018-07-27T13:48:27.793Z,33.60
2018-07-27T13:51:31.400Z,33.70
2018-07-27T13:54:35.417Z,33.70
2018-07-27T13:57:39.078Z,33.70
2018-07-27T14:00:42.760Z,33.60
2018-07-27T14:03:46.518Z,33.80
2018-07-27T14:06:52.048Z,33.80
2018-07-27T14:09:55.524Z,33.80
2018-07-27T14:12:59.382Z,33.80
2018-07-27T14:16:03.703Z,33.80
2018-07-27T14:19:07.430Z,34.00
2018-07-27T14:22:11.543Z,33.90
2018-07-27T14:25:15.153Z,33.90
2018-07-27T14:28:18.694Z,33.90
2018-07-27T14:31:22.209Z,33.90
2018-07-27T14:34:25.511Z,33.90
2018-07-27T14:37:28.915Z,33.90
2018-07-27T14:40:32.461Z,33.80
2018-07-27T14:43:36.906Z,33.80
2018-07-27T14:46:40.240Z,33.90
2018-07-27T14:49:43.437Z,34.00
2018-07-27T14:52:47.050Z,33.90
2018-07-27T14:55:50.726Z,34.00
2018-07-27T14:58:53.935Z,33.80
2018-07-27T15:01:57.586Z,33.90
2018-07-27T15:05:01.392Z,33.90
2018-07-27T15:08:05.290Z,33.70
2018-07-27T15:11:08.460Z,33.80
2018-07-27T15:14:11.933Z,33.70
2018-07-27T15:17:16.199Z,33.70
2018-07-27T15:20:20.055Z,33.70
2018-07-27T15:23:23.316Z,33.70
2018-07-27T15:26:26.780Z,33.70
2018-07-27T15:29:30.312Z,33.70
2018-07-27T15:32:33.430Z,33.60
2018-07-27T15:35:37.586Z,33.60
2018-07-27T15:38:41.285Z,33.60
2018-07-27T15:41:44.848Z,33.60
2018-07-27T15:44:49.090Z,33.60
2018-07-27T15:47:52.833Z,33.50
2018-07-27T15:50:56.220Z,33.50
2018-07-27T15:53:59.446Z,33.40
2018-07-27T16:00:08.373Z,33.20
2018-07-27T16:03:11.590Z,33.10
2018-07-27T16:06:14.883Z,33.10
2018-07-27T16:09:18.339Z,32.90
2018-07-27T16:12:21.380Z,32.90
2018-07-27T16:15:24.559Z,32.80
2018-07-27T16:18:27.692Z,32.70
2018-07-27T16:21:32.547Z,32.50
2018-07-27T16:24:36.463Z,32.50
2018-07-27T16:27:40.003Z,32.40
2018-07-27T16:30:43.919Z,32.40
2018-07-27T16:33:47.375Z,32.40
2018-07-27T16:36:50.762Z,32.40
2018-07-27T16:39:54.254Z,32.30
2018-07-27T16:42:57.428Z,32.30
2018-07-27T16:46:00.843Z,32.50
2018-07-27T16:49:04.556Z,32.20
2018-07-27T16:52:07.862Z,32.20
2018-07-27T16:55:11.342Z,32.20
2018-07-27T16:58:14.457Z,32.20
2018-07-27T17:01:17.577Z,32.30
2018-07-27T17:04:20.879Z,32.40
2018-07-27T17:07:24.203Z,32.20
2018-07-27T17:10:27.785Z,32.20
2018-07-27T17:13:31.500Z,32.00
2018-07-27T17:16:35.018Z,32.30
2018-07-27T17:19:38.485Z,32.30
2018-07-27T17:22:41.946Z,32.50
2018-07-27T17:25:45.748Z,32.20
2018-07-27T17:28:50.417Z,32.30
2018-07-27T17:31:53.881Z,32.00
2018-07-27T17:34:57.832Z,31.90
2018-07-27T17:38:01.659Z,31.90
2018-07-27T17:41:05.872Z,31.80
2018-07-27T17:47:14.223Z,31.80
2018-07-27T17:50:18.040Z,31.80
2018-07-27T17:53:21.782Z,31.90
2018-07-27T17:56:25.217Z,31.60
2018-07-27T17:59:29.315Z,31.70
2018-07-27T18:02:33.280Z,31.60
2018-07-27T18:05:36.681Z,31.60
2018-07-27T18:08:40.333Z,31.60
2018-07-27T18:11:43.939Z,31.50
2018-07-27T18:14:47.952Z,31.50
2018-07-27T18:17:51.397Z,31.40
2018-07-27T18:20:54.768Z,31.50
2018-07-27T18:23:58.436Z,31.70
2018-07-27T18:27:01.759Z,31.40
2018-07-27T18:30:06.491Z,31.50
2018-07-27T18:33:09.885Z,31.10
2018-07-27T18:36:14.254Z,31.20
2018-07-27T18:39:17.618Z,31.20
2018-07-27T18:42:21.401Z,31.10
2018-07-27T18:45:25.261Z,31.00
2018-07-27T18:48:28.652Z,31.10
2018-07-27T18:51:32.199Z,31.10
2018-07-27T18:54:35.789Z,30.90
2018-07-27T18:57:39.306Z,31.10
2018-07-27T19:00:42.768Z,31.10
2018-07-27T19:03:46.723Z,30.90
2018-07-27T19:06:50.053Z,30.90
2018-07-27T19:09:53.571Z,30.80
2018-07-27T19:12:57.019Z,30.80
2018-07-27T19:16:00.541Z,30.50
2018-07-27T19:19:04.010Z,30.40
2018-07-27T19:22:08.041Z,30.30
2018-07-27T19:25:11.924Z,30.50
2018-07-27T19:28:15.449Z,30.20
2018-07-27T19:31:18.984Z,30.30
2018-07-27T19:34:22.497Z,29.80
2018-07-27T19:37:25.944Z,29.60
2018-07-27T19:40:29.668Z,29.60
2018-07-27T19:43:33.181Z,29.90
2018-07-27T19:46:36.898Z,30.00
2018-07-27T19:49:40.189Z,29.80
2018-07-27T19:52:43.598Z,29.70
2018-07-27T19:55:47.472Z,29.70
2018-07-27T19:58:51.014Z,29.60
2018-07-27T20:01:54.442Z,29.40
2018-07-27T20:04:57.656Z,29.60
2018-07-27T20:08:00.964Z,29.50
2018-07-27T20:11:04.490Z,29.60
2018-07-27T20:14:07.690Z,29.50
2018-07-27T20:17:11.052Z,29.30
2018-07-27T20:20:14.604Z,29.40
2018-07-27T20:23:17.871Z,29.30
2018-07-27T20:26:21.127Z,28.90
2018-07-27T20:29:24.391Z,28.90
2018-07-27T20:32:27.661Z,28.90
2018-07-27T20:35:30.948Z,29.00
2018-07-27T20:38:34.271Z,29.00
2018-07-27T20:41:37.625Z,28.90
2018-07-27T20:44:41.400Z,28.90
2018-07-27T20:47:44.629Z,29.10
2018-07-27T20:50:47.837Z,29.10
2018-07-27T20:53:51.108Z,28.70
2018-07-27T20:56:54.261Z,28.70
2018-07-27T20:59:57.432Z,28.70
2018-07-27T21:03:00.725Z,28.70
2018-07-27T21:06:03.951Z,28.70
2018-07-27T21:09:08.463Z,28.90
2018-07-27T21:12:11.641Z,28.60
2018-07-27T21:15:14.851Z,28.50
2018-07-27T21:18:18.010Z,28.40
2018-07-27T21:21:21.983Z,28.30
2018-07-27T21:24:25.217Z,28.20
2018-07-27T21:27:28.306Z,28.20
2018-07-27T21:30:31.559Z,28.20
2018-07-27T21:33:34.677Z,28.10
2018-07-27T21:36:37.923Z,28.20
2018-07-27T21:39:42.548Z,28.10
2018-07-27T21:42:45.947Z,28.20
2018-07-27T21:45:49.211Z,27.90
2018-07-27T21:48:52.514Z,28.00
2018-07-27T21:51:56.406Z,28.10
2018-07-27T21:55:04.644Z,27.90
2018-07-27T22:01:38.569Z,27.90
2018-07-27T22:05:15.415Z,27.80
2018-07-27T22:08:32.817Z,27.90
2018-07-27T22:11:37.254Z,27.70
2018-07-27T22:15:02.225Z,27.60
2018-07-27T22:18:06.938Z,27.50
2018-07-27T22:21:10.214Z,27.60
2018-07-27T22:24:13.544Z,27.70
2018-07-27T22:27:17.540Z,27.70
2018-07-27T22:30:20.853Z,27.70
2018-07-27T22:33:24.291Z,27.50
2018-07-27T22:36:33.662Z,27.60
2018-07-27T22:39:38.629Z,27.80
2018-07-27T22:43:30.718Z,27.60
2018-07-27T22:46:36.259Z,27.70
2018-07-27T22:49:56.224Z,27.70
2018-07-27T22:53:02.714Z,27.70
2018-07-27T23:07:04.062Z,27.80
2018-07-27T23:10:09.750Z,27.80
2018-07-27T23:13:14.791Z,27.80
2018-07-27T23:16:34.173Z,27.80
2018-07-27T23:19:37.535Z,27.90
2018-07-27T23:23:01.519Z,27.90
2018-07-27T23:26:05.172Z,27.90
2018-07-27T23:29:08.384Z,27.90
2018-07-27T23:32:11.686Z,27.90
2018-07-27T23:35:14.872Z,27.90
2018-07-27T23:38:18.199Z,28.10
2018-07-27T23:41:21.412Z,28.00
2018-07-27T23:44:24.663Z,28.00
2018-07-27T23:47:27.904Z,28.00
2018-07-27T23:50:31.155Z,28.00
2018-07-27T23:53:34.402Z,28.00
2018-07-27T23:56:37.774Z,27.90
2018-07-27T23:59:41.030Z,27.90
